Time;durP1;ratioP1;P1;durP2;ratioP2;P2;SDS_P1;SDS_P2;PMS_P1;PMS_P2;Temp;Humidity;BMP_temperature;BMP_pressure;BME280_temperature;BME280_humidity;BME280_pressure;Samples;Min_cycle;Max_cycle;Signal;HPM_P1;HPM_P2
2024/01/17 00:00:15;;;;;;;8.63;3.70;;;;;;;;;;4953380;28;20416;-81
2024/01/17 00:02:42;;;;;;;7.30;3.57;;;;;;;;;;4921631;28;20415;-81
2024/01/17 00:05:10;;;;;;;8.32;3.88;;;;;;;;;;4951113;28;20430;-82
2024/01/17 00:07:36;;;;;;;8.35;3.55;;;;;;;;;;4944757;29;20415;-82
2024/01/17 00:10:03;;;;;;;6.32;3.80;;;;;;;;;;4902678;29;20765;-82
2024/01/17 00:12:30;;;;;;;7.07;3.85;;;;;;;;;;4917904;29;20458;-82
2024/01/17 00:14:56;;;;;;;6.82;3.80;;;;;;;;;;4936446;29;20767;-82
2024/01/17 00:17:22;;;;;;;8.68;3.90;;;;;;;;;;4935425;29;20446;-82
2024/01/17 00:19:51;;;;;;;7.60;3.95;;;;;;;;;;4932254;29;20436;-82
2024/01/17 00:22:17;;;;;;;7.30;4.07;;;;;;;;;;4952181;28;20964;-81
2024/01/17 00:24:44;;;;;;;9.57;4.15;;;;;;;;;;4952635;29;20497;-81
2024/01/17 00:27:12;;;;;;;8.02;4.20;;;;;;;;;;4935722;29;20424;-81
2024/01/17 00:29:39;;;;;;;8.10;3.97;;;;;;;;;;4936948;29;20599;-81
2024/01/17 00:32:05;;;;;;;8.23;4.65;;;;;;;;;;4936467;29;20413;-81
2024/01/17 00:34:31;;;;;;;10.05;4.88;;;;;;;;;;4929241;28;20770;-82
2024/01/17 00:36:57;;;;;;;7.75;4.28;;;;;;;;;;4920161;28;20413;-81
2024/01/17 00:39:23;;;;;;;8.98;4.40;;;;;;;;;;4936490;28;20417;-82
2024/01/17 00:41:49;;;;;;;8.77;4.82;;;;;;;;;;4952248;28;20402;-82
2024/01/17 00:44:18;;;;;;;10.33;4.87;;;;;;;;;;4920241;28;20406;-82
2024/01/17 00:46:45;;;;;;;12.57;5.32;;;;;;;;;;4936806;29;20441;-81
2024/01/17 00:49:11;;;;;;;10.45;5.05;;;;;;;;;;4936298;29;20493;-80
2024/01/17 00:51:37;;;;;;;12.18;5.72;;;;;;;;;;4948453;28;20431;-80
2024/01/17 00:54:04;;;;;;;10.43;5.32;;;;;;;;;;4923869;29;20419;-81
2024/01/17 00:56:32;;;;;;;11.43;5.70;;;;;;;;;;4915670;29;20494;-81
2024/01/17 00:58:58;;;;;;;9.85;5.72;;;;;;;;;;4935328;29;20496;-81
2024/01/17 01:01:24;;;;;;;10.95;5.70;;;;;;;;;;4951422;29;20413;-80
2024/01/17 01:03:51;;;;;;;9.10;5.90;;;;;;;;;;4920476;29;20428;-81
2024/01/17 01:06:17;;;;;;;10.73;6.03;;;;;;;;;;4936125;29;20510;-81
2024/01/17 01:08:43;;;;;;;11.40;6.53;;;;;;;;;;4951102;28;20433;-81
2024/01/17 01:11:09;;;;;;;10.23;5.55;;;;;;;;;;4935555;29;20492;-81
2024/01/17 01:13:35;;;;;;;12.38;6.00;;;;;;;;;;4947040;28;20482;-81
2024/01/17 01:16:03;;;;;;;9.25;5.80;;;;;;;;;;4935630;29;20429;-81
2024/01/17 01:18:30;;;;;;;9.70;6.13;;;;;;;;;;4936411;29;20480;-81
2024/01/17 01:20:57;;;;;;;14.13;6.35;;;;;;;;;;4936371;28;20426;-81
2024/01/17 01:23:25;;;;;;;12.52;6.30;;;;;;;;;;4950492;28;20459;-81
2024/01/17 01:25:51;;;;;;;11.27;6.32;;;;;;;;;;4920169;29;20425;-81
2024/01/17 01:28:17;;;;;;;10.17;6.20;;;;;;;;;;4920303;29;20752;-81
2024/01/17 01:30:43;;;;;;;10.02;6.43;;;;;;;;;;4951636;28;20930;-81
2024/01/17 01:33:09;;;;;;;11.75;6.50;;;;;;;;;;4935905;28;20740;-81
2024/01/17 01:35:36;;;;;;;13.43;7.10;;;;;;;;;;4935415;29;20409;-81
2024/01/17 01:38:02;;;;;;;13.15;7.25;;;;;;;;;;4952210;28;20475;-81
2024/01/17 01:40:28;;;;;;;13.90;7.70;;;;;;;;;;4932469;29;20844;-82
2024/01/17 01:42:58;;;;;;;10.95;6.85;;;;;;;;;;4943122;28;20818;-82
2024/01/17 01:45:24;;;;;;;12.47;7.27;;;;;;;;;;4953361;28;20437;-82
2024/01/17 01:47:51;;;;;;;16.70;7.60;;;;;;;;;;4955725;28;20417;-81
2024/01/17 01:50:17;;;;;;;12.13;7.60;;;;;;;;;;4937785;28;20441;-82
2024/01/17 01:52:45;;;;;;;12.35;7.72;;;;;;;;;;4955575;28;20501;-82
2024/01/17 01:55:11;;;;;;;12.80;7.70;;;;;;;;;;4938793;28;20421;-82
2024/01/17 01:57:40;;;;;;;15.60;8.07;;;;;;;;;;4943614;28;20431;-82
2024/01/17 02:00:07;;;;;;;13.43;7.65;;;;;;;;;;4925690;29;20418;-82
2024/01/17 02:02:33;;;;;;;13.07;7.68;;;;;;;;;;4938613;29;20880;-82
2024/01/17 02:05:01;;;;;;;14.18;8.52;;;;;;;;;;4937988;29;20441;-82
2024/01/17 02:07:28;;;;;;;12.55;7.80;;;;;;;;;;4954710;28;20406;-82
2024/01/17 02:09:55;;;;;;;14.80;8.15;;;;;;;;;;4938611;29;20735;-82
2024/01/17 02:12:21;;;;;;;14.73;8.30;;;;;;;;;;4937887;29;20410;-81
2024/01/17 02:14:47;;;;;;;14.80;8.70;;;;;;;;;;4936976;28;20520;-81
2024/01/17 02:17:13;;;;;;;14.90;8.27;;;;;;;;;;4922550;29;20462;-80
2024/01/17 02:19:41;;;;;;;14.63;8.30;;;;;;;;;;4922649;29;20408;-81
2024/01/17 02:22:08;;;;;;;13.05;7.93;;;;;;;;;;4931065;29;20438;-81
2024/01/17 02:24:34;;;;;;;14.40;8.63;;;;;;;;;;4950973;28;20446;-81
2024/01/17 02:27:01;;;;;;;13.55;8.73;;;;;;;;;;4955167;28;20402;-81
2024/01/17 02:29:30;;;;;;;16.13;8.70;;;;;;;;;;4938696;29;20748;-81
2024/01/17 02:31:56;;;;;;;13.25;8.60;;;;;;;;;;4951636;28;20430;-81
2024/01/17 02:34:23;;;;;;;13.77;8.82;;;;;;;;;;4938362;28;20406;-82
2024/01/17 02:36:49;;;;;;;15.65;8.77;;;;;;;;;;4943165;28;20559;-81
2024/01/17 02:39:15;;;;;;;15.88;9.38;;;;;;;;;;4953025;28;20428;-81
2024/01/17 02:41:42;;;;;;;15.13;8.80;;;;;;;;;;4931318;28;20414;-81
2024/01/17 02:44:08;;;;;;;15.35;8.90;;;;;;;;;;4938389;29;20414;-81
2024/01/17 02:46:34;;;;;;;13.37;8.60;;;;;;;;;;4952584;28;20508;-81
2024/01/17 02:49:00;;;;;;;13.95;9.18;;;;;;;;;;4937397;29;20473;-81
2024/01/17 02:51:27;;;;;;;13.90;8.57;;;;;;;;;;4919567;29;20473;-81
2024/01/17 02:53:53;;;;;;;13.73;8.85;;;;;;;;;;4937388;29;20914;-81
2024/01/17 02:56:19;;;;;;;16.08;8.85;;;;;;;;;;4937709;29;20417;-81
2024/01/17 02:58:45;;;;;;;15.07;9.40;;;;;;;;;;4921643;28;20418;-81
2024/01/17 03:01:13;;;;;;;15.07;9.70;;;;;;;;;;4937282;29;20418;-81
2024/01/17 03:03:40;;;;;;;15.25;9.40;;;;;;;;;;4954835;28;20902;-82
2024/01/17 03:06:06;;;;;;;19.25;9.50;;;;;;;;;;4950952;28;20434;-81
2024/01/17 03:08:32;;;;;;;14.63;9.25;;;;;;;;;;4952956;28;20418;-81
2024/01/17 03:10:58;;;;;;;18.33;9.88;;;;;;;;;;4953732;28;20524;-81
2024/01/17 03:13:24;;;;;;;16.10;9.48;;;;;;;;;;4953384;28;20504;-81
2024/01/17 03:15:50;;;;;;;17.00;9.57;;;;;;;;;;4953720;28;20461;-81
2024/01/17 03:18:17;;;;;;;15.13;9.65;;;;;;;;;;4954554;28;20406;-82
2024/01/17 03:20:43;;;;;;;17.50;10.23;;;;;;;;;;4935568;29;20465;-82
2024/01/17 03:23:09;;;;;;;14.88;9.48;;;;;;;;;;4952481;28;20426;-82
2024/01/17 03:25:35;;;;;;;19.02;10.30;;;;;;;;;;4932800;29;20445;-81
2024/01/17 03:28:01;;;;;;;16.25;10.25;;;;;;;;;;4954525;28;20407;-81
2024/01/17 03:30:27;;;;;;;16.58;10.85;;;;;;;;;;4951824;28;20410;-82
2024/01/17 03:32:54;;;;;;;17.33;10.45;;;;;;;;;;4933800;29;20899;-82
2024/01/17 03:35:20;;;;;;;16.52;11.20;;;;;;;;;;4947538;28;20412;-82
2024/01/17 03:37:46;;;;;;;16.77;10.70;;;;;;;;;;4947041;28;20464;-82
2024/01/17 03:40:12;;;;;;;17.15;10.68;;;;;;;;;;4935909;29;20794;-82
2024/01/17 03:42:38;;;;;;;18.73;10.48;;;;;;;;;;4936673;29;20413;-82
2024/01/17 03:45:05;;;;;;;17.08;11.10;;;;;;;;;;4952479;28;20485;-82
2024/01/17 03:47:31;;;;;;;16.58;11.00;;;;;;;;;;4952751;28;20409;-82
2024/01/17 03:49:57;;;;;;;17.02;10.75;;;;;;;;;;4952944;28;20425;-81
2024/01/17 03:52:23;;;;;;;18.00;11.00;;;;;;;;;;4935720;29;20755;-81
2024/01/17 03:54:49;;;;;;;18.47;11.70;;;;;;;;;;4921648;29;20421;-82
2024/01/17 03:57:15;;;;;;;17.33;11.25;;;;;;;;;;4952954;28;20406;-81
2024/01/17 03:59:43;;;;;;;15.95;10.70;;;;;;;;;;4941488;28;20409;-81
2024/01/17 04:02:09;;;;;;;18.20;10.30;;;;;;;;;;4933637;29;20501;-82
2024/01/17 04:04:35;;;;;;;18.50;10.73;;;;;;;;;;4948398;28;20401;-82
2024/01/17 04:07:01;;;;;;;16.85;10.55;;;;;;;;;;4930423;29;20426;-82
2024/01/17 04:09:27;;;;;;;19.40;11.38;;;;;;;;;;4935486;28;20406;-82
2024/01/17 04:11:53;;;;;;;18.63;10.85;;;;;;;;;;4942356;28;20677;-82
2024/01/17 04:14:19;;;;;;;18.23;11.05;;;;;;;;;;4952942;28;20751;-81
2024/01/17 04:16:45;;;;;;;19.02;11.05;;;;;;;;;;4952005;28;20854;-82
2024/01/17 04:19:11;;;;;;;18.45;11.23;;;;;;;;;;4952281;28;20438;-81
2024/01/17 04:21:37;;;;;;;16.80;10.13;;;;;;;;;;4935750;28;20489;-82
2024/01/17 04:24:04;;;;;;;15.95;10.32;;;;;;;;;;4936187;28;20410;-81
2024/01/17 04:26:30;;;;;;;17.73;11.27;;;;;;;;;;4952175;28;20434;-82
2024/01/17 04:28:56;;;;;;;17.60;11.00;;;;;;;;;;4950945;28;20467;-82
2024/01/17 04:31:23;;;;;;;16.75;10.55;;;;;;;;;;4932221;28;20407;-82
2024/01/17 04:33:50;;;;;;;19.00;11.07;;;;;;;;;;4950878;28;20421;-82
2024/01/17 04:36:16;;;;;;;19.48;11.27;;;;;;;;;;4952390;28;20414;-83
2024/01/17 04:38:43;;;;;;;16.85;11.20;;;;;;;;;;4950984;28;20409;-83
2024/01/17 04:41:10;;;;;;;16.75;10.65;;;;;;;;;;4934611;29;20468;-83
2024/01/17 04:43:37;;;;;;;16.13;11.02;;;;;;;;;;4952178;29;20417;-83
2024/01/17 04:46:03;;;;;;;16.73;10.90;;;;;;;;;;4951745;28;20472;-83
2024/01/17 04:48:29;;;;;;;17.00;10.60;;;;;;;;;;4952745;28;20740;-82
2024/01/17 04:50:58;;;;;;;18.02;10.68;;;;;;;;;;4920785;29;20410;-83
2024/01/17 04:53:25;;;;;;;17.98;10.75;;;;;;;;;;4925615;29;20461;-83
2024/01/17 04:55:51;;;;;;;16.88;10.60;;;;;;;;;;4937305;29;20464;-83
2024/01/17 04:58:18;;;;;;;17.10;10.90;;;;;;;;;;4937078;29;20406;-83
2024/01/17 05:00:47;;;;;;;17.67;11.02;;;;;;;;;;4919770;29;20921;-83
2024/01/17 05:03:13;;;;;;;17.85;10.82;;;;;;;;;;4949288;28;20419;-83
2024/01/17 05:05:43;;;;;;;15.63;10.30;;;;;;;;;;4950678;28;20434;-82
2024/01/17 05:08:10;;;;;;;15.27;10.57;;;;;;;;;;4966325;28;20761;-83
2024/01/17 05:10:36;;;;;;;16.27;10.60;;;;;;;;;;4921807;28;20413;-83
2024/01/17 05:13:02;;;;;;;16.40;10.85;;;;;;;;;;4949685;28;20436;-83
2024/01/17 05:15:28;;;;;;;17.00;10.88;;;;;;;;;;4929383;29;20485;-83
2024/01/17 05:17:54;;;;;;;18.40;10.57;;;;;;;;;;4936306;29;20542;-82
2024/01/17 05:20:21;;;;;;;17.35;9.93;;;;;;;;;;4938332;29;20442;-83
2024/01/17 05:22:47;;;;;;;18.93;10.70;;;;;;;;;;4940309;29;20914;-83
2024/01/17 05:25:13;;;;;;;15.27;10.20;;;;;;;;;;4920005;29;20427;-83
2024/01/17 05:27:39;;;;;;;15.77;10.32;;;;;;;;;;4955987;28;20898;-83
2024/01/17 05:30:09;;;;;;;18.40;10.88;;;;;;;;;;4939983;29;20432;-83
2024/01/17 05:32:39;;;;;;;16.00;10.87;;;;;;;;;;4924676;29;20410;-83
2024/01/17 05:35:06;;;;;;;17.63;10.93;;;;;;;;;;4938330;28;20579;-83
2024/01/17 05:37:32;;;;;;;17.38;10.68;;;;;;;;;;4942913;29;20748;-82
2024/01/17 05:39:58;;;;;;;19.73;11.45;;;;;;;;;;4939192;28;20433;-82
2024/01/17 05:42:24;;;;;;;21.70;11.37;;;;;;;;;;4924429;28;20835;-83
2024/01/17 05:44:51;;;;;;;16.67;11.10;;;;;;;;;;4939667;28;20437;-82
2024/01/17 05:47:17;;;;;;;17.83;11.50;;;;;;;;;;4944563;28;20421;-82
2024/01/17 05:49:43;;;;;;;17.70;11.35;;;;;;;;;;4939745;29;20484;-83
2024/01/17 05:52:10;;;;;;;20.95;11.75;;;;;;;;;;4939485;28;20413;-82
2024/01/17 05:54:36;;;;;;;21.13;12.73;;;;;;;;;;4937743;28;20421;-82
2024/01/17 05:57:02;;;;;;;18.98;12.02;;;;;;;;;;4953391;28;20952;-82
2024/01/17 05:59:28;;;;;;;18.73;11.80;;;;;;;;;;4953737;28;20411;-82
2024/01/17 06:01:54;;;;;;;17.70;11.52;;;;;;;;;;4956187;29;20770;-83
2024/01/17 06:04:20;;;;;;;19.50;11.95;;;;;;;;;;4939793;28;20417;-83
2024/01/17 06:06:46;;;;;;;18.63;11.85;;;;;;;;;;4940409;29;20484;-83
2024/01/17 06:09:14;;;;;;;18.90;12.40;;;;;;;;;;4924637;28;20488;-82
2024/01/17 06:11:40;;;;;;;18.30;11.77;;;;;;;;;;4923754;28;21093;-82
2024/01/17 06:14:06;;;;;;;22.75;11.98;;;;;;;;;;4923870;29;20410;-83
2024/01/17 06:16:32;;;;;;;20.55;11.75;;;;;;;;;;4922880;28;20429;-82
2024/01/17 06:18:59;;;;;;;17.98;11.88;;;;;;;;;;4939168;29;20416;-82
2024/01/17 06:21:28;;;;;;;17.45;11.82;;;;;;;;;;4927982;29;20423;-82
2024/01/17 06:23:54;;;;;;;23.90;12.55;;;;;;;;;;4952188;28;20421;-81
2024/01/17 06:26:20;;;;;;;19.87;11.83;;;;;;;;;;4938952;29;20433;-82
2024/01/17 06:28:46;;;;;;;18.83;11.68;;;;;;;;;;4922781;29;20430;-83
2024/01/17 06:31:20;;;;;;;17.02;11.52;;;;;;;;;;4929733;28;20407;-83
2024/01/17 06:33:46;;;;;;;20.33;12.32;;;;;;;;;;4938704;28;20410;-83
2024/01/17 06:36:13;;;;;;;18.38;11.45;;;;;;;;;;4924164;28;20442;-82
2024/01/17 06:38:39;;;;;;;21.38;12.05;;;;;;;;;;4938494;28;20422;-82
2024/01/17 06:41:05;;;;;;;18.55;11.65;;;;;;;;;;4914411;29;20423;-81
2024/01/17 06:43:31;;;;;;;17.33;11.17;;;;;;;;;;4922358;28;20425;-78
2024/01/17 06:45:57;;;;;;;18.65;11.80;;;;;;;;;;4947332;28;20467;-79
2024/01/17 06:48:24;;;;;;;16.08;10.95;;;;;;;;;;4953707;28;21135;-79
2024/01/17 06:50:50;;;;;;;18.00;11.50;;;;;;;;;;4954756;28;20416;-78
2024/01/17 06:53:17;;;;;;;17.63;11.00;;;;;;;;;;4955822;28;20409;-79
2024/01/17 06:55:44;;;;;;;16.33;10.60;;;;;;;;;;4949855;28;20925;-79
2024/01/17 06:58:10;;;;;;;18.13;10.93;;;;;;;;;;4947473;28;20429;-80
2024/01/17 07:00:36;;;;;;;18.63;10.68;;;;;;;;;;4936973;29;20417;-80
2024/01/17 07:03:02;;;;;;;16.77;10.82;;;;;;;;;;4955074;28;20496;-81
2024/01/17 07:05:28;;;;;;;15.75;10.30;;;;;;;;;;4953093;28;20923;-81
2024/01/17 07:07:54;;;;;;;16.25;10.50;;;;;;;;;;4942179;28;20413;-81
2024/01/17 07:10:22;;;;;;;18.17;10.85;;;;;;;;;;4921035;29;20417;-81
2024/01/17 07:12:50;;;;;;;18.50;11.38;;;;;;;;;;4954605;28;20505;-81
2024/01/17 07:15:17;;;;;;;20.35;11.20;;;;;;;;;;4953478;28;20903;-80
2024/01/17 07:17:43;;;;;;;18.25;11.50;;;;;;;;;;4953868;28;20402;-81
2024/01/17 07:20:10;;;;;;;15.55;10.38;;;;;;;;;;4937326;29;20408;-80
2024/01/17 07:22:45;;;;;;;18.00;11.43;;;;;;;;;;4952734;28;20429;-78
2024/01/17 07:25:13;;;;;;;17.38;11.10;;;;;;;;;;4924040;29;20439;-80
2024/01/17 07:27:44;;;;;;;16.63;11.63;;;;;;;;;;4952966;28;20410;-80
2024/01/17 07:30:15;;;;;;;17.60;11.18;;;;;;;;;;4932792;29;20435;-80
2024/01/17 07:32:41;;;;;;;16.70;11.82;;;;;;;;;;4936468;28;20421;-80
2024/01/17 07:35:08;;;;;;;16.10;11.88;;;;;;;;;;4936322;29;20436;-80
2024/01/17 07:37:35;;;;;;;20.05;11.73;;;;;;;;;;4952440;28;20849;-79
2024/01/17 07:40:02;;;;;;;19.70;11.98;;;;;;;;;;4952637;28;20417;-79
2024/01/17 07:42:28;;;;;;;17.92;11.48;;;;;;;;;;4936832;29;20708;-79
2024/01/17 07:44:54;;;;;;;17.88;12.02;;;;;;;;;;4952269;28;20531;-80
2024/01/17 07:47:20;;;;;;;26.42;11.90;;;;;;;;;;4951826;28;20434;-80
2024/01/17 07:49:48;;;;;;;17.73;12.27;;;;;;;;;;4947841;28;20421;-80
2024/01/17 07:52:14;;;;;;;18.60;12.83;;;;;;;;;;4937380;29;20426;-81
2024/01/17 07:54:40;;;;;;;21.02;12.77;;;;;;;;;;4934263;29;20935;-81
2024/01/17 07:57:06;;;;;;;17.73;12.03;;;;;;;;;;4954920;28;20487;-81
2024/01/17 07:59:32;;;;;;;18.70;11.52;;;;;;;;;;4951719;28;20414;-81
2024/01/17 08:01:59;;;;;;;17.98;11.88;;;;;;;;;;4934370;28;20960;-81
2024/01/17 08:04:25;;;;;;;22.25;12.68;;;;;;;;;;4931616;29;20413;-81
2024/01/17 08:06:52;;;;;;;20.80;12.40;;;;;;;;;;4946945;28;20942;-82
2024/01/17 08:09:20;;;;;;;21.00;12.37;;;;;;;;;;4934775;28;20464;-82
2024/01/17 08:11:53;;;;;;;18.05;11.77;;;;;;;;;;4936772;28;20898;-82
2024/01/17 08:14:19;;;;;;;20.83;12.60;;;;;;;;;;4936619;29;20420;-81
2024/01/17 08:16:46;;;;;;;18.38;11.68;;;;;;;;;;4936070;29;20433;-81
2024/01/17 08:19:12;;;;;;;18.03;12.10;;;;;;;;;;4951925;28;20449;-81
2024/01/17 08:21:39;;;;;;;18.40;11.95;;;;;;;;;;4932903;29;20433;-82
2024/01/17 08:24:05;;;;;;;19.25;12.07;;;;;;;;;;4945940;28;20855;-82
2024/01/17 08:26:32;;;;;;;20.60;12.05;;;;;;;;;;4928527;29;20427;-81
2024/01/17 08:28:58;;;;;;;17.83;12.25;;;;;;;;;;4914245;29;20441;-80
2024/01/17 08:31:24;;;;;;;19.92;12.40;;;;;;;;;;4951815;28;20448;-82
2024/01/17 08:33:53;;;;;;;21.50;12.45;;;;;;;;;;4930850;29;20417;-81
2024/01/17 08:36:19;;;;;;;20.55;12.10;;;;;;;;;;4949168;28;20455;-82
2024/01/17 08:38:46;;;;;;;19.63;11.77;;;;;;;;;;4949972;28;20942;-81
2024/01/17 08:41:12;;;;;;;17.65;11.02;;;;;;;;;;4935436;28;20464;-82
2024/01/17 08:43:38;;;;;;;17.05;11.10;;;;;;;;;;4951988;28;20469;-81
2024/01/17 08:46:05;;;;;;;14.63;10.35;;;;;;;;;;4936220;29;20437;-81
2024/01/17 08:48:31;;;;;;;16.63;10.77;;;;;;;;;;4934554;29;21069;-79
2024/01/17 08:50:58;;;;;;;15.95;11.02;;;;;;;;;;4943107;28;20414;-81
2024/01/17 08:53:25;;;;;;;18.52;11.07;;;;;;;;;;4922972;29;20827;-81
2024/01/17 08:55:51;;;;;;;19.00;10.80;;;;;;;;;;4919312;29;20469;-81
2024/01/17 08:58:17;;;;;;;17.23;11.05;;;;;;;;;;4951809;28;20423;-82
2024/01/17 09:00:43;;;;;;;17.60;11.50;;;;;;;;;;4952303;28;20425;-82
2024/01/17 09:03:09;;;;;;;17.92;11.65;;;;;;;;;;4951998;28;20489;-81
2024/01/17 09:05:35;;;;;;;20.10;11.68;;;;;;;;;;4927880;29;20557;-80
2024/01/17 09:08:01;;;;;;;17.15;11.32;;;;;;;;;;4930247;28;20422;-81
2024/01/17 09:10:29;;;;;;;18.05;11.38;;;;;;;;;;4927292;29;20490;-82
2024/01/17 09:12:55;;;;;;;18.45;11.60;;;;;;;;;;4934046;28;20434;-82
2024/01/17 09:15:21;;;;;;;18.73;11.10;;;;;;;;;;4932938;28;20429;-80
2024/01/17 09:17:47;;;;;;;18.08;10.93;;;;;;;;;;4949106;28;20425;-82
2024/01/17 09:20:14;;;;;;;17.40;11.30;;;;;;;;;;4945654;28;20411;-82
2024/01/17 09:22:41;;;;;;;20.33;11.85;;;;;;;;;;4928906;29;20469;-82
2024/01/17 09:25:08;;;;;;;20.00;11.43;;;;;;;;;;4934234;29;20417;-82
2024/01/17 09:27:34;;;;;;;18.45;11.48;;;;;;;;;;4936190;28;20442;-83
2024/01/17 09:30:00;;;;;;;17.40;10.43;;;;;;;;;;4935306;29;20432;-83
2024/01/17 09:32:26;;;;;;;17.30;11.00;;;;;;;;;;4951500;28;20497;-82
2024/01/17 09:34:53;;;;;;;17.20;10.90;;;;;;;;;;4939897;28;20451;-84
2024/01/17 09:37:19;;;;;;;15.25;10.25;;;;;;;;;;4937206;28;20509;-83
2024/01/17 09:39:47;;;;;;;17.35;11.18;;;;;;;;;;4936106;29;20422;-83
2024/01/17 09:42:16;;;;;;;18.42;10.48;;;;;;;;;;4953993;28;20542;-83
2024/01/17 09:44:43;;;;;;;16.35;10.00;;;;;;;;;;4948929;29;20910;-84
2024/01/17 09:47:13;;;;;;;17.63;9.68;;;;;;;;;;4951745;28;20433;-83
2024/01/17 09:49:39;;;;;;;16.30;10.18;;;;;;;;;;4939324;29;20403;-83
2024/01/17 09:52:06;;;;;;;15.05;9.65;;;;;;;;;;4944151;28;20413;-83
2024/01/17 09:54:33;;;;;;;16.23;9.90;;;;;;;;;;4916166;28;20423;-83
2024/01/17 09:57:01;;;;;;;16.38;10.18;;;;;;;;;;4931058;28;20449;-84
2024/01/17 09:59:29;;;;;;;16.25;9.77;;;;;;;;;;4923344;29;20420;-83
2024/01/17 10:01:56;;;;;;;16.58;9.55;;;;;;;;;;4948833;28;20815;-83
2024/01/17 10:04:26;;;;;;;17.48;9.55;;;;;;;;;;4934446;29;20417;-82
2024/01/17 10:06:55;;;;;;;16.90;9.57;;;;;;;;;;4948209;28;20464;-82
2024/01/17 10:09:25;;;;;;;15.82;10.00;;;;;;;;;;4948672;28;20460;-83
2024/01/17 10:11:51;;;;;;;15.23;9.10;;;;;;;;;;4934344;28;20786;-83
2024/01/17 10:14:18;;;;;;;15.30;9.30;;;;;;;;;;4954917;28;20421;-83
2024/01/17 10:16:44;;;;;;;15.68;9.15;;;;;;;;;;4953273;28;20442;-84
2024/01/17 10:19:10;;;;;;;17.33;9.23;;;;;;;;;;4939420;29;20417;-84
2024/01/17 10:21:36;;;;;;;15.90;9.30;;;;;;;;;;4948800;28;20423;-81
2024/01/17 10:24:06;;;;;;;16.17;8.80;;;;;;;;;;4919077;28;20436;-81
2024/01/17 10:26:32;;;;;;;14.90;8.52;;;;;;;;;;4954200;28;20923;-80
2024/01/17 10:28:59;;;;;;;17.95;9.27;;;;;;;;;;4936240;29;20578;-80
2024/01/17 10:31:25;;;;;;;13.73;8.75;;;;;;;;;;4953273;28;20409;-81
2024/01/17 10:33:53;;;;;;;15.73;9.15;;;;;;;;;;4938459;29;20553;-80
2024/01/17 10:36:19;;;;;;;15.88;8.40;;;;;;;;;;4936254;29;20443;-81
2024/01/17 10:38:49;;;;;;;17.17;8.93;;;;;;;;;;4955294;28;20933;-80
2024/01/17 10:41:15;;;;;;;14.50;8.50;;;;;;;;;;4955177;28;20549;-81
2024/01/17 10:43:54;;;;;;;15.20;8.75;;;;;;;;;;4957601;28;20822;-81
2024/01/17 10:46:21;;;;;;;14.53;8.33;;;;;;;;;;4939789;29;20454;-82
2024/01/17 10:48:47;;;;;;;13.70;8.27;;;;;;;;;;4955590;28;20445;-81
2024/01/17 10:51:18;;;;;;;14.90;8.35;;;;;;;;;;4955918;28;20429;-81
2024/01/17 10:53:45;;;;;;;16.38;8.85;;;;;;;;;;4950288;28;20454;-81
2024/01/17 10:56:11;;;;;;;12.93;8.25;;;;;;;;;;4932525;29;20473;-81
2024/01/17 10:58:39;;;;;;;13.70;7.85;;;;;;;;;;4955983;28;20435;-82
2024/01/17 11:01:08;;;;;;;14.02;8.23;;;;;;;;;;4952582;28;20437;-82
2024/01/17 11:03:37;;;;;;;13.80;8.55;;;;;;;;;;4937060;28;20433;-82
2024/01/17 11:06:03;;;;;;;13.57;8.63;;;;;;;;;;4948586;28;20456;-82
2024/01/17 11:08:30;;;;;;;13.15;8.10;;;;;;;;;;4950805;28;20458;-82
2024/01/17 11:10:56;;;;;;;12.57;8.05;;;;;;;;;;4925774;29;20468;-81
2024/01/17 11:13:25;;;;;;;16.35;9.00;;;;;;;;;;4954471;28;20457;-82
2024/01/17 11:15:52;;;;;;;13.25;8.93;;;;;;;;;;4953147;28;20937;-82
2024/01/17 11:18:20;;;;;;;12.93;8.10;;;;;;;;;;4952369;28;20421;-82
2024/01/17 11:20:46;;;;;;;12.82;8.57;;;;;;;;;;4952833;28;20418;-80
2024/01/17 11:23:21;;;;;;;14.75;8.27;;;;;;;;;;4945619;28;20492;-81
2024/01/17 11:26:02;;;;;;;13.15;7.75;;;;;;;;;;4953017;28;20435;-82
2024/01/17 11:28:32;;;;;;;16.48;8.48;;;;;;;;;;4962114;28;20483;-82
2024/01/17 11:31:13;;;;;;;12.07;7.90;;;;;;;;;;4952363;28;20894;-82
2024/01/17 11:33:39;;;;;;;15.63;7.85;;;;;;;;;;4954268;28;20417;-82
2024/01/17 11:36:05;;;;;;;16.67;7.90;;;;;;;;;;4952703;28;20414;-82
2024/01/17 11:38:32;;;;;;;15.75;8.50;;;;;;;;;;4937001;29;20450;-82
2024/01/17 11:41:05;;;;;;;12.93;8.60;;;;;;;;;;4943165;28;20478;-81
2024/01/17 11:43:33;;;;;;;13.70;8.32;;;;;;;;;;4949837;28;20421;-82
2024/01/17 11:46:00;;;;;;;12.67;7.90;;;;;;;;;;4933274;28;20565;-82
2024/01/17 11:48:27;;;;;;;16.15;8.23;;;;;;;;;;4952981;28;20418;-82
2024/01/17 11:51:16;;;;;;;13.63;7.97;;;;;;;;;;4953858;28;20519;-81
2024/01/17 11:53:43;;;;;;;13.43;7.65;;;;;;;;;;4952103;28;20417;-82
2024/01/17 11:56:10;;;;;;;15.50;8.48;;;;;;;;;;4935884;29;20420;-81
2024/01/17 11:58:42;;;;;;;12.55;8.02;;;;;;;;;;4935679;29;20436;-81
2024/01/17 12:01:11;;;;;;;14.13;7.90;;;;;;;;;;4950461;28;20517;-81
2024/01/17 12:03:37;;;;;;;13.60;8.50;;;;;;;;;;4952545;28;20418;-82
2024/01/17 12:06:03;;;;;;;15.73;8.07;;;;;;;;;;4951650;28;20441;-81
2024/01/17 12:08:29;;;;;;;14.38;8.20;;;;;;;;;;4935913;28;20425;-82
2024/01/17 12:10:55;;;;;;;14.33;7.90;;;;;;;;;;4935449;29;20606;-82
2024/01/17 12:13:23;;;;;;;11.88;8.18;;;;;;;;;;4935827;28;20417;-81
2024/01/17 12:15:52;;;;;;;14.02;8.00;;;;;;;;;;4939409;28;20773;-81
2024/01/17 12:18:20;;;;;;;13.87;8.57;;;;;;;;;;4936659;28;20966;-81
2024/01/17 12:20:46;;;;;;;13.90;7.95;;;;;;;;;;4939286;28;20938;-80
2024/01/17 12:23:12;;;;;;;14.52;8.45;;;;;;;;;;4934170;28;20424;-81
2024/01/17 12:25:39;;;;;;;15.30;8.45;;;;;;;;;;4937682;28;20500;-80
2024/01/17 12:28:05;;;;;;;13.48;8.07;;;;;;;;;;4918686;29;20411;-80
2024/01/17 12:30:31;;;;;;;13.60;8.35;;;;;;;;;;4908408;28;20508;-81
2024/01/17 12:32:58;;;;;;;14.55;8.13;;;;;;;;;;4913784;28;20405;-80
2024/01/17 12:35:24;;;;;;;13.82;8.30;;;;;;;;;;4937903;28;20447;-80
2024/01/17 12:37:50;;;;;;;15.50;8.18;;;;;;;;;;4919766;28;20452;-81
2024/01/17 12:40:16;;;;;;;14.93;8.33;;;;;;;;;;4911311;29;20946;-81
2024/01/17 12:42:47;;;;;;;13.45;8.45;;;;;;;;;;4953801;28;20421;-81
2024/01/17 12:45:13;;;;;;;14.88;8.65;;;;;;;;;;4920022;29;20923;-81
2024/01/17 12:47:39;;;;;;;13.65;8.57;;;;;;;;;;4924738;29;20683;-81
2024/01/17 12:50:08;;;;;;;15.40;8.82;;;;;;;;;;4923648;28;20918;-80
2024/01/17 12:52:35;;;;;;;13.50;7.90;;;;;;;;;;4933048;28;20440;-81
2024/01/17 12:55:02;;;;;;;12.88;7.65;;;;;;;;;;4932703;28;20421;-80
2024/01/17 12:57:29;;;;;;;12.80;7.82;;;;;;;;;;4934965;29;20445;-80
2024/01/17 12:59:55;;;;;;;14.70;7.80;;;;;;;;;;4920923;28;20822;-80
2024/01/17 13:02:21;;;;;;;13.23;7.30;;;;;;;;;;4950828;28;20444;-80
2024/01/17 13:05:06;;;;;;;15.80;8.70;;;;;;;;;;4938193;28;20438;-81
2024/01/17 13:07:32;;;;;;;13.02;8.00;;;;;;;;;;4950457;28;20437;-81
2024/01/17 13:09:58;;;;;;;13.30;8.43;;;;;;;;;;4932265;29;20594;-81
2024/01/17 13:12:25;;;;;;;13.00;8.30;;;;;;;;;;4903753;29;20791;-82
2024/01/17 13:14:51;;;;;;;16.08;7.88;;;;;;;;;;4931502;28;22718;-81
2024/01/17 13:17:18;;;;;;;13.15;7.82;;;;;;;;;;4950431;28;20430;-81
2024/01/17 13:19:44;;;;;;;14.05;7.90;;;;;;;;;;4949150;28;20420;-80
2024/01/17 13:22:12;;;;;;;12.35;7.90;;;;;;;;;;4949732;28;20451;-81
2024/01/17 13:24:40;;;;;;;14.00;8.30;;;;;;;;;;4937379;29;20420;-81
2024/01/17 13:27:07;;;;;;;13.15;8.35;;;;;;;;;;4934308;29;20969;-82
2024/01/17 13:29:33;;;;;;;13.27;7.78;;;;;;;;;;4934855;29;20471;-81
2024/01/17 13:32:00;;;;;;;15.52;8.82;;;;;;;;;;4934937;28;20913;-81
2024/01/17 13:34:26;;;;;;;14.23;8.60;;;;;;;;;;4949644;28;20476;-81
2024/01/17 13:36:52;;;;;;;12.77;8.38;;;;;;;;;;4951651;28;20425;-80
2024/01/17 13:39:18;;;;;;;15.10;8.43;;;;;;;;;;4933640;28;20434;-80
2024/01/17 13:41:44;;;;;;;14.43;8.57;;;;;;;;;;4953457;28;20424;-80
2024/01/17 13:44:11;;;;;;;16.15;8.43;;;;;;;;;;4954214;28;20421;-81
2024/01/17 13:46:37;;;;;;;17.65;9.18;;;;;;;;;;4948933;28;20476;-81
2024/01/17 13:49:07;;;;;;;15.15;8.40;;;;;;;;;;4937952;29;20425;-82
2024/01/17 13:51:43;;;;;;;16.67;9.50;;;;;;;;;;4934598;28;20431;-81
2024/01/17 13:54:15;;;;;;;15.47;9.33;;;;;;;;;;4954276;28;20406;-81
2024/01/17 13:56:42;;;;;;;14.30;8.38;;;;;;;;;;4919851;28;20418;-81
2024/01/17 13:59:09;;;;;;;13.43;8.68;;;;;;;;;;4952595;28;20429;-81
2024/01/17 14:01:36;;;;;;;16.23;9.18;;;;;;;;;;4935440;29;20477;-81
2024/01/17 14:04:03;;;;;;;16.52;9.18;;;;;;;;;;4922198;28;20435;-81
2024/01/17 14:06:29;;;;;;;14.45;9.02;;;;;;;;;;4935617;29;20430;-80
2024/01/17 14:08:55;;;;;;;15.05;8.57;;;;;;;;;;4950086;28;20403;-80
2024/01/17 14:11:22;;;;;;;13.57;8.77;;;;;;;;;;4950811;28;20930;-80
2024/01/17 14:13:48;;;;;;;13.63;8.70;;;;;;;;;;4937537;29;20416;-80
2024/01/17 14:16:14;;;;;;;15.18;8.50;;;;;;;;;;4932929;28;20447;-81
2024/01/17 14:18:40;;;;;;;13.43;8.30;;;;;;;;;;4955909;28;20432;-81
2024/01/17 14:21:06;;;;;;;14.10;8.82;;;;;;;;;;4953995;28;20409;-80
2024/01/17 14:23:32;;;;;;;13.17;8.17;;;;;;;;;;4922497;29;20409;-81